sensor_id;sensor_type;location;lat;lon;timestamp;P1;durP1;ratioP1;P2;durP2;ratioP2
61473;SDS011;53694;49.784;30.150;2023-04-06T18:07:39;4.91;;;2.33;;
61473;SDS011;53694;49.784;30.150;2023-04-06T18:08:40;9.99;;;3.31;;
61473;SDS011;53694;49.784;30.150;2023-04-06T18:09:42;6.83;;;2.96;;
61473;SDS011;53694;49.784;30.150;2023-04-06T18:10:44;4.55;;;2.05;;
61473;SDS011;53694;49.784;30.150;2023-04-06T18:11:45;5.96;;;2.20;;
61473;SDS011;53694;49.784;30.150;2023-04-06T18:12:47;4.01;;;1.77;;
61473;SDS011;53694;49.784;30.150;2023-04-06T18:13:49;3.43;;;1.31;;
61473;SDS011;53694;49.784;30.150;2023-04-06T18:14:50;5.34;;;1.76;;
61473;SDS011;53694;49.784;30.150;2023-04-06T18:15:52;3.97;;;1.83;;
61473;SDS011;53694;49.784;30.150;2023-04-06T18:16:54;4.11;;;1.47;;
61473;SDS011;53694;49.784;30.150;2023-04-06T18:17:56;6.78;;;1.65;;
61473;SDS011;53694;49.784;30.150;2023-04-06T18:18:57;3.55;;;1.69;;
61473;SDS011;53694;49.784;30.150;2023-04-06T18:20:00;3.15;;;1.36;;
61473;SDS011;53694;49.784;30.150;2023-04-06T18:21:02;5.71;;;2.65;;
61473;SDS011;53694;49.784;30.150;2023-04-06T18:22:07;4.48;;;1.76;;
61473;SDS011;53694;49.784;30.150;2023-04-06T18:23:08;6.01;;;1.28;;
61473;SDS011;53694;49.784;30.150;2023-04-06T18:24:10;4.35;;;1.74;;
61473;SDS011;53694;49.784;30.150;2023-04-06T18:25:12;2.89;;;1.41;;
61473;SDS011;53694;49.784;30.150;2023-04-06T18:26:14;4.31;;;1.65;;
61473;SDS011;53694;49.784;30.150;2023-04-06T18:27:18;3.02;;;1.33;;
61473;SDS011;53694;49.784;30.150;2023-04-06T18:28:20;5.22;;;2.01;;
61473;SDS011;53694;49.784;30.150;2023-04-06T18:29:22;5.00;;;2.13;;
61473;SDS011;53694;49.784;30.150;2023-04-06T18:30:23;3.99;;;1.63;;
61473;SDS011;53694;49.784;30.150;2023-04-06T18:31:25;4.25;;;1.70;;
61473;SDS011;53694;49.784;30.150;2023-04-06T18:32:26;3.74;;;1.71;;
61473;SDS011;53694;49.784;30.150;2023-04-06T18:33:28;3.98;;;1.91;;
61473;SDS011;53694;49.784;30.150;2023-04-06T18:34:30;2.69;;;1.35;;
61473;SDS011;53694;49.784;30.150;2023-04-06T18:35:31;3.33;;;1.76;;
61473;SDS011;53694;49.784;30.150;2023-04-06T18:36:33;3.54;;;1.26;;
61473;SDS011;53694;49.784;30.150;2023-04-06T18:37:34;4.80;;;1.45;;
61473;SDS011;53694;49.784;30.150;2023-04-06T18:38:40;3.44;;;1.60;;
61473;SDS011;53694;49.784;30.150;2023-04-06T18:39:44;4.22;;;1.65;;
61473;SDS011;53694;49.784;30.150;2023-04-06T18:40:45;4.59;;;1.95;;
61473;SDS011;53694;49.784;30.150;2023-04-06T18:41:47;6.62;;;2.73;;
61473;SDS011;53694;49.784;30.150;2023-04-06T18:42:49;5.14;;;2.69;;
61473;SDS011;53694;49.784;30.150;2023-04-06T18:43:50;4.87;;;2.25;;
61473;SDS011;53694;49.784;30.150;2023-04-06T18:44:52;8.28;;;3.79;;
61473;SDS011;53694;49.784;30.150;2023-04-06T18:45:54;3.99;;;1.61;;
61473;SDS011;53694;49.784;30.150;2023-04-06T18:46:55;5.49;;;2.39;;
61473;SDS011;53694;49.784;30.150;2023-04-06T18:47:57;8.03;;;4.03;;
61473;SDS011;53694;49.784;30.150;2023-04-06T18:48:59;4.82;;;2.45;;
61473;SDS011;53694;49.784;30.150;2023-04-06T18:50:01;6.85;;;4.06;;
61473;SDS011;53694;49.784;30.150;2023-04-06T18:51:02;7.47;;;4.40;;
61473;SDS011;53694;49.784;30.150;2023-04-06T18:52:04;11.48;;;7.37;;
61473;SDS011;53694;49.784;30.150;2023-04-06T18:53:06;20.97;;;8.33;;
61473;SDS011;53694;49.784;30.150;2023-04-06T18:54:08;10.61;;;4.77;;
61473;SDS011;53694;49.784;30.150;2023-04-06T18:55:09;4.45;;;2.33;;
61473;SDS011;53694;49.784;30.150;2023-04-06T18:56:14;9.49;;;4.73;;
61473;SDS011;53694;49.784;30.150;2023-04-06T18:57:17;6.39;;;2.82;;
61473;SDS011;53694;49.784;30.150;2023-04-06T18:58:19;6.85;;;3.71;;
61473;SDS011;53694;49.784;30.150;2023-04-06T18:59:21;8.26;;;4.95;;
61473;SDS011;53694;49.784;30.150;2023-04-06T19:00:23;4.25;;;2.21;;
61473;SDS011;53694;49.784;30.150;2023-04-06T19:01:28;6.23;;;3.80;;
61473;SDS011;53694;49.784;30.150;2023-04-06T19:02:31;7.41;;;4.28;;
61473;SDS011;53694;49.784;30.150;2023-04-06T19:03:33;22.97;;;11.88;;
61473;SDS011;53694;49.784;30.150;2023-04-06T19:04:34;10.23;;;6.88;;
61473;SDS011;53694;49.784;30.150;2023-04-06T19:05:36;9.68;;;5.89;;
61473;SDS011;53694;49.784;30.150;2023-04-06T19:06:39;9.12;;;5.37;;
61473;SDS011;53694;49.784;30.150;2023-04-06T19:07:41;10.09;;;6.24;;
61473;SDS011;53694;49.784;30.150;2023-04-06T19:08:42;6.90;;;3.97;;
61473;SDS011;53694;49.784;30.150;2023-04-06T19:09:47;11.27;;;6.84;;
61473;SDS011;53694;49.784;30.150;2023-04-06T19:10:49;9.74;;;5.37;;
61473;SDS011;53694;49.784;30.150;2023-04-06T19:11:50;9.80;;;5.81;;
61473;SDS011;53694;49.784;30.150;2023-04-06T19:12:52;19.96;;;12.93;;
61473;SDS011;53694;49.784;30.150;2023-04-06T19:13:53;9.79;;;6.51;;
61473;SDS011;53694;49.784;30.150;2023-04-06T19:14:55;5.74;;;3.41;;
61473;SDS011;53694;49.784;30.150;2023-04-06T19:15:56;5.92;;;2.50;;
61473;SDS011;53694;49.784;30.150;2023-04-06T19:16:58;4.57;;;2.61;;
61473;SDS011;53694;49.784;30.150;2023-04-06T19:18:00;5.75;;;3.35;;
61473;SDS011;53694;49.784;30.150;2023-04-06T19:19:02;4.48;;;2.14;;
61473;SDS011;53694;49.784;30.150;2023-04-06T19:20:04;3.95;;;2.40;;
61473;SDS011;53694;49.784;30.150;2023-04-06T19:21:18;5.13;;;3.41;;
61473;SDS011;53694;49.784;30.150;2023-04-06T19:22:22;4.41;;;2.89;;
61473;SDS011;53694;49.784;30.150;2023-04-06T19:23:23;4.27;;;2.45;;
61473;SDS011;53694;49.784;30.150;2023-04-06T19:24:25;5.07;;;2.94;;
61473;SDS011;53694;49.784;30.150;2023-04-06T19:25:27;4.71;;;2.70;;
61473;SDS011;53694;49.784;30.150;2023-04-06T19:26:28;5.03;;;3.02;;
61473;SDS011;53694;49.784;30.150;2023-04-06T19:27:30;5.26;;;3.11;;
61473;SDS011;53694;49.784;30.150;2023-04-06T19:28:32;6.68;;;3.27;;
61473;SDS011;53694;49.784;30.150;2023-04-06T19:29:34;6.21;;;3.84;;
61473;SDS011;53694;49.784;30.150;2023-04-06T19:30:36;7.04;;;3.77;;
61473;SDS011;53694;49.784;30.150;2023-04-06T19:31:38;5.07;;;3.49;;
61473;SDS011;53694;49.784;30.150;2023-04-06T19:32:40;6.69;;;4.18;;
61473;SDS011;53694;49.784;30.150;2023-04-06T19:33:41;7.55;;;5.01;;
61473;SDS011;53694;49.784;30.150;2023-04-06T19:34:44;6.82;;;4.53;;
61473;SDS011;53694;49.784;30.150;2023-04-06T19:35:46;6.77;;;4.04;;
61473;SDS011;53694;49.784;30.150;2023-04-06T19:36:47;6.68;;;3.54;;
61473;SDS011;53694;49.784;30.150;2023-04-06T19:37:49;6.02;;;3.44;;
61473;SDS011;53694;49.784;30.150;2023-04-06T19:38:50;4.73;;;3.04;;
61473;SDS011;53694;49.784;30.150;2023-04-06T19:39:52;5.36;;;3.16;;
61473;SDS011;53694;49.784;30.150;2023-04-06T19:40:54;5.57;;;2.49;;
61473;SDS011;53694;49.784;30.150;2023-04-06T19:41:55;7.91;;;2.84;;
61473;SDS011;53694;49.784;30.150;2023-04-06T19:42:57;4.19;;;2.61;;
61473;SDS011;53694;49.784;30.150;2023-04-06T19:43:59;6.01;;;3.52;;
61473;SDS011;53694;49.784;30.150;2023-04-06T19:45:00;7.74;;;4.86;;
61473;SDS011;53694;49.784;30.150;2023-04-06T19:46:02;6.34;;;3.49;;
61473;SDS011;53694;49.784;30.150;2023-04-06T19:47:04;5.99;;;3.91;;
61473;SDS011;53694;49.784;30.150;2023-04-06T19:48:05;5.63;;;3.62;;
61473;SDS011;53694;49.784;30.150;2023-04-06T19:49:07;6.36;;;3.94;;
61473;SDS011;53694;49.784;30.150;2023-04-06T19:50:08;6.24;;;4.31;;
61473;SDS011;53694;49.784;30.150;2023-04-06T19:51:10;6.14;;;4.60;;
61473;SDS011;53694;49.784;30.150;2023-04-06T19:52:12;5.99;;;4.69;;
61473;SDS011;53694;49.784;30.150;2023-04-06T19:53:13;8.01;;;5.11;;
61473;SDS011;53694;49.784;30.150;2023-04-06T19:54:15;7.95;;;5.64;;
61473;SDS011;53694;49.784;30.150;2023-04-06T19:55:16;7.31;;;5.03;;
61473;SDS011;53694;49.784;30.150;2023-04-06T19:56:18;7.65;;;4.61;;
61473;SDS011;53694;49.784;30.150;2023-04-06T19:57:20;6.76;;;3.85;;
61473;SDS011;53694;49.784;30.150;2023-04-06T19:58:21;8.17;;;3.33;;
61473;SDS011;53694;49.784;30.150;2023-04-06T19:59:23;6.41;;;3.48;;
61473;SDS011;53694;49.784;30.150;2023-04-06T20:00:25;9.46;;;4.69;;
61473;SDS011;53694;49.784;30.150;2023-04-06T20:01:27;15.41;;;7.63;;
61473;SDS011;53694;49.784;30.150;2023-04-06T20:02:28;17.85;;;9.04;;
61473;SDS011;53694;49.784;30.150;2023-04-06T20:03:30;11.86;;;6.98;;
61473;SDS011;53694;49.784;30.150;2023-04-06T20:04:32;21.01;;;13.49;;
61473;SDS011;53694;49.784;30.150;2023-04-06T20:05:34;6.03;;;3.83;;
61473;SDS011;53694;49.784;30.150;2023-04-06T20:06:36;6.93;;;4.47;;
61473;SDS011;53694;49.784;30.150;2023-04-06T20:07:38;8.34;;;5.50;;
61473;SDS011;53694;49.784;30.150;2023-04-06T20:08:39;8.69;;;5.49;;
61473;SDS011;53694;49.784;30.150;2023-04-06T20:09:41;14.84;;;9.44;;
61473;SDS011;53694;49.784;30.150;2023-04-06T20:10:43;12.80;;;8.41;;
61473;SDS011;53694;49.784;30.150;2023-04-06T20:11:44;12.50;;;8.05;;
61473;SDS011;53694;49.784;30.150;2023-04-06T20:12:46;10.09;;;6.31;;
61473;SDS011;53694;49.784;30.150;2023-04-06T20:13:48;13.15;;;7.79;;
61473;SDS011;53694;49.784;30.150;2023-04-06T20:14:49;16.44;;;8.69;;
61473;SDS011;53694;49.784;30.150;2023-04-06T20:15:51;14.76;;;8.24;;
61473;SDS011;53694;49.784;30.150;2023-04-06T20:16:52;37.98;;;20.71;;
61473;SDS011;53694;49.784;30.150;2023-04-06T20:17:54;33.66;;;19.85;;
61473;SDS011;53694;49.784;30.150;2023-04-06T20:18:56;29.76;;;18.94;;
61473;SDS011;53694;49.784;30.150;2023-04-06T20:19:57;26.91;;;15.34;;
61473;SDS011;53694;49.784;30.150;2023-04-06T20:20:59;29.49;;;18.69;;
61473;SDS011;53694;49.784;30.150;2023-04-06T20:22:00;42.73;;;26.11;;
61473;SDS011;53694;49.784;30.150;2023-04-06T20:23:02;21.65;;;14.51;;
61473;SDS011;53694;49.784;30.150;2023-04-06T20:24:04;17.65;;;11.44;;
61473;SDS011;53694;49.784;30.150;2023-04-06T20:25:06;14.58;;;9.60;;
61473;SDS011;53694;49.784;30.150;2023-04-06T20:26:08;6.56;;;4.57;;
61473;SDS011;53694;49.784;30.150;2023-04-06T20:27:10;8.52;;;6.07;;
61473;SDS011;53694;49.784;30.150;2023-04-06T20:28:12;14.69;;;10.75;;
61473;SDS011;53694;49.784;30.150;2023-04-06T20:29:13;8.16;;;5.86;;
61473;SDS011;53694;49.784;30.150;2023-04-06T20:30:15;8.99;;;4.94;;
61473;SDS011;53694;49.784;30.150;2023-04-06T20:31:16;9.35;;;6.63;;
61473;SDS011;53694;49.784;30.150;2023-04-06T20:32:18;8.69;;;4.89;;
61473;SDS011;53694;49.784;30.150;2023-04-06T20:33:20;8.41;;;4.89;;
61473;SDS011;53694;49.784;30.150;2023-04-06T20:34:21;8.79;;;4.94;;
61473;SDS011;53694;49.784;30.150;2023-04-06T20:35:23;10.85;;;6.20;;
61473;SDS011;53694;49.784;30.150;2023-04-06T20:36:25;9.33;;;5.01;;
61473;SDS011;53694;49.784;30.150;2023-04-06T20:37:26;6.36;;;4.13;;
61473;SDS011;53694;49.784;30.150;2023-04-06T20:38:28;5.87;;;3.46;;
61473;SDS011;53694;49.784;30.150;2023-04-06T20:39:29;4.96;;;3.08;;
61473;SDS011;53694;49.784;30.150;2023-04-06T20:40:31;4.99;;;2.86;;
61473;SDS011;53694;49.784;30.150;2023-04-06T20:41:33;5.14;;;3.05;;
61473;SDS011;53694;49.784;30.150;2023-04-06T20:42:34;4.52;;;2.59;;
61473;SDS011;53694;49.784;30.150;2023-04-06T20:43:36;4.89;;;2.72;;
61473;SDS011;53694;49.784;30.150;2023-04-06T20:44:37;5.39;;;3.20;;
61473;SDS011;53694;49.784;30.150;2023-04-06T20:45:39;5.63;;;3.68;;
61473;SDS011;53694;49.784;30.150;2023-04-06T20:46:41;7.39;;;4.10;;
61473;SDS011;53694;49.784;30.150;2023-04-06T20:47:42;6.74;;;4.16;;
61473;SDS011;53694;49.784;30.150;2023-04-06T20:48:44;7.12;;;4.69;;
61473;SDS011;53694;49.784;30.150;2023-04-06T20:49:45;7.69;;;4.56;;
61473;SDS011;53694;49.784;30.150;2023-04-06T20:50:47;8.65;;;5.62;;
61473;SDS011;53694;49.784;30.150;2023-04-06T20:51:49;10.19;;;6.41;;
61473;SDS011;53694;49.784;30.150;2023-04-06T20:52:51;8.93;;;5.56;;
61473;SDS011;53694;49.784;30.150;2023-04-06T20:53:52;9.64;;;6.12;;
61473;SDS011;53694;49.784;30.150;2023-04-06T20:54:54;8.53;;;5.24;;
61473;SDS011;53694;49.784;30.150;2023-04-06T20:55:55;7.21;;;3.84;;
61473;SDS011;53694;49.784;30.150;2023-04-06T20:56:58;5.03;;;3.17;;
61473;SDS011;53694;49.784;30.150;2023-04-06T20:57:59;5.44;;;3.02;;
61473;SDS011;53694;49.784;30.150;2023-04-06T20:59:01;5.31;;;3.16;;
61473;SDS011;53694;49.784;30.150;2023-04-06T21:00:03;8.74;;;3.84;;
61473;SDS011;53694;49.784;30.150;2023-04-06T21:01:10;6.33;;;3.25;;
61473;SDS011;53694;49.784;30.150;2023-04-06T21:02:11;5.08;;;2.94;;
61473;SDS011;53694;49.784;30.150;2023-04-06T21:03:13;5.39;;;2.93;;
61473;SDS011;53694;49.784;30.150;2023-04-06T21:04:15;5.37;;;3.19;;
61473;SDS011;53694;49.784;30.150;2023-04-06T21:05:17;5.32;;;3.21;;
61473;SDS011;53694;49.784;30.150;2023-04-06T21:06:18;5.62;;;3.72;;
61473;SDS011;53694;49.784;30.150;2023-04-06T21:07:20;6.26;;;3.82;;
61473;SDS011;53694;49.784;30.150;2023-04-06T21:08:21;5.56;;;3.57;;
61473;SDS011;53694;49.784;30.150;2023-04-06T21:09:24;6.37;;;3.89;;
61473;SDS011;53694;49.784;30.150;2023-04-06T21:10:26;7.42;;;4.54;;
61473;SDS011;53694;49.784;30.150;2023-04-06T21:11:27;7.19;;;4.79;;
61473;SDS011;53694;49.784;30.150;2023-04-06T21:12:29;7.31;;;4.74;;
61473;SDS011;53694;49.784;30.150;2023-04-06T21:13:31;7.69;;;5.24;;
61473;SDS011;53694;49.784;30.150;2023-04-06T21:14:32;8.90;;;5.37;;
61473;SDS011;53694;49.784;30.150;2023-04-06T21:15:34;7.64;;;3.89;;
61473;SDS011;53694;49.784;30.150;2023-04-06T21:16:36;7.04;;;4.01;;
61473;SDS011;53694;49.784;30.150;2023-04-06T21:17:37;5.85;;;3.66;;
61473;SDS011;53694;49.784;30.150;2023-04-06T21:18:39;7.86;;;3.96;;
61473;SDS011;53694;49.784;30.150;2023-04-06T21:19:40;7.17;;;3.62;;
61473;SDS011;53694;49.784;30.150;2023-04-06T21:20:42;6.26;;;3.63;;
61473;SDS011;53694;49.784;30.150;2023-04-06T21:21:44;8.14;;;3.50;;
61473;SDS011;53694;49.784;30.150;2023-04-06T21:22:46;5.05;;;3.14;;
61473;SDS011;53694;49.784;30.150;2023-04-06T21:23:50;5.76;;;3.69;;
61473;SDS011;53694;49.784;30.150;2023-04-06T21:24:51;5.36;;;3.53;;
61473;SDS011;53694;49.784;30.150;2023-04-06T21:25:53;5.06;;;3.17;;
61473;SDS011;53694;49.784;30.150;2023-04-06T21:26:54;8.90;;;4.16;;
61473;SDS011;53694;49.784;30.150;2023-04-06T21:27:56;7.04;;;4.18;;
61473;SDS011;53694;49.784;30.150;2023-04-06T21:28:57;6.91;;;4.61;;
61473;SDS011;53694;49.784;30.150;2023-04-06T21:30:00;8.58;;;5.00;;
61473;SDS011;53694;49.784;30.150;2023-04-06T21:31:04;7.55;;;4.84;;
61473;SDS011;53694;49.784;30.150;2023-04-06T21:32:08;7.96;;;5.41;;
61473;SDS011;53694;49.784;30.150;2023-04-06T21:33:10;7.16;;;4.90;;
61473;SDS011;53694;49.784;30.150;2023-04-06T21:34:11;7.21;;;4.84;;
61473;SDS011;53694;49.784;30.150;2023-04-06T21:35:14;5.77;;;4.04;;
61473;SDS011;53694;49.784;30.150;2023-04-06T21:36:15;7.31;;;3.85;;
61473;SDS011;53694;49.784;30.150;2023-04-06T21:37:17;6.61;;;3.66;;
61473;SDS011;53694;49.784;30.150;2023-04-06T21:38:19;5.26;;;3.44;;
61473;SDS011;53694;49.784;30.150;2023-04-06T21:39:20;5.14;;;3.48;;
61473;SDS011;53694;49.784;30.150;2023-04-06T21:40:22;4.89;;;3.05;;
61473;SDS011;53694;49.784;30.150;2023-04-06T21:41:23;5.03;;;2.86;;
61473;SDS011;53694;49.784;30.150;2023-04-06T21:42:24;5.07;;;2.93;;
61473;SDS011;53694;49.784;30.150;2023-04-06T21:43:26;4.69;;;2.91;;
61473;SDS011;53694;49.784;30.150;2023-04-06T21:44:28;5.43;;;3.19;;
61473;SDS011;53694;49.784;30.150;2023-04-06T21:45:29;5.89;;;3.66;;
61473;SDS011;53694;49.784;30.150;2023-04-06T21:46:31;5.49;;;3.53;;
61473;SDS011;53694;49.784;30.150;2023-04-06T21:47:33;6.31;;;3.66;;
61473;SDS011;53694;49.784;30.150;2023-04-06T21:48:35;4.83;;;3.35;;
61473;SDS011;53694;49.784;30.150;2023-04-06T21:49:36;6.39;;;3.81;;
61473;SDS011;53694;49.784;30.150;2023-04-06T21:50:38;6.57;;;4.02;;
61473;SDS011;53694;49.784;30.150;2023-04-06T21:51:40;6.37;;;4.09;;
61473;SDS011;53694;49.784;30.150;2023-04-06T21:52:41;7.13;;;4.50;;
61473;SDS011;53694;49.784;30.150;2023-04-06T21:53:43;6.30;;;4.11;;
61473;SDS011;53694;49.784;30.150;2023-04-06T21:54:45;6.81;;;4.16;;
61473;SDS011;53694;49.784;30.150;2023-04-06T21:55:46;4.90;;;3.08;;
61473;SDS011;53694;49.784;30.150;2023-04-06T21:56:48;6.15;;;3.29;;
61473;SDS011;53694;49.784;30.150;2023-04-06T21:57:50;4.55;;;2.61;;
61473;SDS011;53694;49.784;30.150;2023-04-06T21:58:52;4.41;;;2.69;;
61473;SDS011;53694;49.784;30.150;2023-04-06T21:59:53;4.66;;;2.36;;
61473;SDS011;53694;49.784;30.150;2023-04-06T22:00:55;4.82;;;2.42;;
61473;SDS011;53694;49.784;30.150;2023-04-06T22:01:56;5.05;;;2.71;;
61473;SDS011;53694;49.784;30.150;2023-04-06T22:02:58;5.49;;;3.18;;
61473;SDS011;53694;49.784;30.150;2023-04-06T22:04:00;5.13;;;2.91;;
61473;SDS011;53694;49.784;30.150;2023-04-06T22:05:02;4.98;;;2.69;;
61473;SDS011;53694;49.784;30.150;2023-04-06T22:06:04;5.59;;;3.40;;
61473;SDS011;53694;49.784;30.150;2023-04-06T22:07:06;8.30;;;4.52;;
61473;SDS011;53694;49.784;30.150;2023-04-06T22:08:08;9.48;;;5.77;;
61473;SDS011;53694;49.784;30.150;2023-04-06T22:09:10;5.79;;;3.79;;
61473;SDS011;53694;49.784;30.150;2023-04-06T22:10:11;6.87;;;4.38;;
61473;SDS011;53694;49.784;30.150;2023-04-06T22:11:13;6.66;;;4.50;;
61473;SDS011;53694;49.784;30.150;2023-04-06T22:12:15;12.61;;;7.05;;
61473;SDS011;53694;49.784;30.150;2023-04-06T22:13:16;5.86;;;3.13;;
61473;SDS011;53694;49.784;30.150;2023-04-06T22:14:18;6.70;;;3.97;;
61473;SDS011;53694;49.784;30.150;2023-04-06T22:15:20;5.89;;;3.74;;
61473;SDS011;53694;49.784;30.150;2023-04-06T22:16:22;8.59;;;5.26;;
61473;SDS011;53694;49.784;30.150;2023-04-06T22:17:23;6.55;;;4.64;;
61473;SDS011;53694;49.784;30.150;2023-04-06T22:18:25;8.38;;;4.56;;
61473;SDS011;53694;49.784;30.150;2023-04-06T22:19:26;6.89;;;3.68;;
61473;SDS011;53694;49.784;30.150;2023-04-06T22:20:28;4.49;;;2.37;;
61473;SDS011;53694;49.784;30.150;2023-04-06T22:21:30;4.62;;;2.48;;
61473;SDS011;53694;49.784;30.150;2023-04-06T22:22:31;4.14;;;2.21;;
61473;SDS011;53694;49.784;30.150;2023-04-06T22:23:33;5.99;;;1.90;;
61473;SDS011;53694;49.784;30.150;2023-04-06T22:24:35;5.28;;;2.49;;
61473;SDS011;53694;49.784;30.150;2023-04-06T22:25:37;4.29;;;2.17;;
61473;SDS011;53694;49.784;30.150;2023-04-06T22:26:38;3.95;;;2.13;;
61473;SDS011;53694;49.784;30.150;2023-04-06T22:27:40;4.35;;;2.45;;
61473;SDS011;53694;49.784;30.150;2023-04-06T22:28:42;4.46;;;2.64;;
61473;SDS011;53694;49.784;30.150;2023-04-06T22:29:43;5.23;;;2.66;;
61473;SDS011;53694;49.784;30.150;2023-04-06T22:30:45;4.91;;;2.81;;
61473;SDS011;53694;49.784;30.150;2023-04-06T22:31:46;4.54;;;2.58;;
61473;SDS011;53694;49.784;30.150;2023-04-06T22:32:48;4.79;;;3.00;;
61473;SDS011;53694;49.784;30.150;2023-04-06T22:33:49;4.35;;;2.76;;
61473;SDS011;53694;49.784;30.150;2023-04-06T22:34:51;5.87;;;3.47;;
61473;SDS011;53694;49.784;30.150;2023-04-06T22:35:52;4.58;;;3.04;;
61473;SDS011;53694;49.784;30.150;2023-04-06T22:36:54;5.50;;;3.46;;
61473;SDS011;53694;49.784;30.150;2023-04-06T22:37:56;5.04;;;3.13;;
61473;SDS011;53694;49.784;30.150;2023-04-06T22:38:57;4.51;;;2.94;;
61473;SDS011;53694;49.784;30.150;2023-04-06T22:39:59;3.96;;;2.39;;
61473;SDS011;53694;49.784;30.150;2023-04-06T22:41:00;4.22;;;2.39;;
61473;SDS011;53694;49.784;30.150;2023-04-06T22:42:02;3.70;;;2.24;;
61473;SDS011;53694;49.784;30.150;2023-04-06T22:43:04;3.40;;;1.90;;
61473;SDS011;53694;49.784;30.150;2023-04-06T22:44:05;3.40;;;1.91;;
61473;SDS011;53694;49.784;30.150;2023-04-06T22:45:07;3.32;;;1.99;;
61473;SDS011;53694;49.784;30.150;2023-04-06T22:46:09;4.11;;;2.25;;
61473;SDS011;53694;49.784;30.150;2023-04-06T22:47:10;4.05;;;2.40;;
61473;SDS011;53694;49.784;30.150;2023-04-06T22:48:12;4.36;;;2.54;;
61473;SDS011;53694;49.784;30.150;2023-04-06T22:49:13;3.82;;;2.44;;
61473;SDS011;53694;49.784;30.150;2023-04-06T22:50:15;5.08;;;2.66;;
61473;SDS011;53694;49.784;30.150;2023-04-06T22:51:16;4.32;;;2.69;;
61473;SDS011;53694;49.784;30.150;2023-04-06T22:52:18;4.73;;;2.86;;
61473;SDS011;53694;49.784;30.150;2023-04-06T22:53:20;4.59;;;2.77;;
61473;SDS011;53694;49.784;30.150;2023-04-06T22:54:21;5.69;;;3.08;;
61473;SDS011;53694;49.784;30.150;2023-04-06T22:55:23;6.41;;;3.38;;
61473;SDS011;53694;49.784;30.150;2023-04-06T22:56:24;5.55;;;2.99;;
61473;SDS011;53694;49.784;30.150;2023-04-06T22:57:26;5.54;;;3.29;;
61473;SDS011;53694;49.784;30.150;2023-04-06T22:58:27;4.99;;;3.21;;
61473;SDS011;53694;49.784;30.150;2023-04-06T22:59:29;5.02;;;3.37;;
61473;SDS011;53694;49.784;30.150;2023-04-06T23:00:30;6.17;;;3.31;;
61473;SDS011;53694;49.784;30.150;2023-04-06T23:01:32;4.73;;;2.65;;
61473;SDS011;53694;49.784;30.150;2023-04-06T23:02:34;4.61;;;2.91;;
61473;SDS011;53694;49.784;30.150;2023-04-06T23:03:35;4.02;;;2.31;;
61473;SDS011;53694;49.784;30.150;2023-04-06T23:04:36;4.47;;;2.41;;
61473;SDS011;53694;49.784;30.150;2023-04-06T23:05:38;4.56;;;2.26;;
61473;SDS011;53694;49.784;30.150;2023-04-06T23:06:39;4.09;;;2.30;;
61473;SDS011;53694;49.784;30.150;2023-04-06T23:07:41;4.29;;;2.29;;
61473;SDS011;53694;49.784;30.150;2023-04-06T23:08:43;4.51;;;2.44;;
61473;SDS011;53694;49.784;30.150;2023-04-06T23:09:44;3.69;;;2.39;;
61473;SDS011;53694;49.784;30.150;2023-04-06T23:10:46;3.66;;;2.32;;
61473;SDS011;53694;49.784;30.150;2023-04-06T23:11:47;4.73;;;2.81;;
61473;SDS011;53694;49.784;30.150;2023-04-06T23:12:49;4.97;;;3.05;;
61473;SDS011;53694;49.784;30.150;2023-04-06T23:13:50;4.89;;;3.01;;
61473;SDS011;53694;49.784;30.150;2023-04-06T23:14:52;4.60;;;3.01;;
61473;SDS011;53694;49.784;30.150;2023-04-06T23:15:53;4.80;;;3.02;;
61473;SDS011;53694;49.784;30.150;2023-04-06T23:16:55;4.71;;;3.33;;
61473;SDS011;53694;49.784;30.150;2023-04-06T23:17:57;5.22;;;3.51;;
61473;SDS011;53694;49.784;30.150;2023-04-06T23:18:58;4.39;;;3.11;;
61473;SDS011;53694;49.784;30.150;2023-04-06T23:20:00;5.92;;;3.61;;
61473;SDS011;53694;49.784;30.150;2023-04-06T23:21:01;5.86;;;3.81;;
61473;SDS011;53694;49.784;30.150;2023-04-06T23:22:05;5.96;;;3.77;;
61473;SDS011;53694;49.784;30.150;2023-04-06T23:23:06;4.87;;;2.80;;
61473;SDS011;53694;49.784;30.150;2023-04-06T23:24:08;11.18;;;6.90;;
61473;SDS011;53694;49.784;30.150;2023-04-06T23:25:09;8.06;;;5.08;;
61473;SDS011;53694;49.784;30.150;2023-04-06T23:26:11;5.90;;;3.51;;
61473;SDS011;53694;49.784;30.150;2023-04-06T23:27:13;5.10;;;2.33;;
61473;SDS011;53694;49.784;30.150;2023-04-06T23:28:14;4.38;;;2.34;;
61473;SDS011;53694;49.784;30.150;2023-04-06T23:29:16;3.85;;;2.22;;
61473;SDS011;53694;49.784;30.150;2023-04-06T23:30:17;3.49;;;2.24;;
61473;SDS011;53694;49.784;30.150;2023-04-06T23:31:19;4.39;;;2.56;;
61473;SDS011;53694;49.784;30.150;2023-04-06T23:32:20;3.98;;;2.36;;
61473;SDS011;53694;49.784;30.150;2023-04-06T23:33:22;4.76;;;2.65;;
61473;SDS011;53694;49.784;30.150;2023-04-06T23:34:24;5.29;;;3.01;;
61473;SDS011;53694;49.784;30.150;2023-04-06T23:35:25;9.17;;;5.01;;
61473;SDS011;53694;49.784;30.150;2023-04-06T23:36:27;5.87;;;3.63;;
61473;SDS011;53694;49.784;30.150;2023-04-06T23:37:28;9.43;;;5.18;;
61473;SDS011;53694;49.784;30.150;2023-04-06T23:38:30;5.98;;;3.69;;
61473;SDS011;53694;49.784;30.150;2023-04-06T23:39:31;5.79;;;3.71;;
61473;SDS011;53694;49.784;30.150;2023-04-06T23:40:35;5.53;;;3.80;;
61473;SDS011;53694;49.784;30.150;2023-04-06T23:41:39;5.91;;;3.57;;
61473;SDS011;53694;49.784;30.150;2023-04-06T23:42:41;4.29;;;3.24;;
61473;SDS011;53694;49.784;30.150;2023-04-06T23:43:42;4.92;;;3.20;;
61473;SDS011;53694;49.784;30.150;2023-04-06T23:44:44;4.11;;;2.61;;
61473;SDS011;53694;49.784;30.150;2023-04-06T23:45:45;4.16;;;2.69;;
61473;SDS011;53694;49.784;30.150;2023-04-06T23:46:47;3.99;;;2.50;;
61473;SDS011;53694;49.784;30.150;2023-04-06T23:47:48;3.89;;;2.13;;
61473;SDS011;53694;49.784;30.150;2023-04-06T23:48:50;3.08;;;2.00;;
61473;SDS011;53694;49.784;30.150;2023-04-06T23:49:51;3.81;;;1.99;;
61473;SDS011;53694;49.784;30.150;2023-04-06T23:50:55;5.26;;;2.14;;
61473;SDS011;53694;49.784;30.150;2023-04-06T23:51:57;3.70;;;2.39;;
61473;SDS011;53694;49.784;30.150;2023-04-06T23:52:59;3.41;;;2.35;;
61473;SDS011;53694;49.784;30.150;2023-04-06T23:54:00;4.09;;;2.55;;
61473;SDS011;53694;49.784;30.150;2023-04-06T23:55:02;3.84;;;2.48;;
61473;SDS011;53694;49.784;30.150;2023-04-06T23:56:04;4.18;;;2.67;;
61473;SDS011;53694;49.784;30.150;2023-04-06T23:57:05;4.51;;;2.89;;
61473;SDS011;53694;49.784;30.150;2023-04-06T23:58:07;5.29;;;3.05;;
61473;SDS011;53694;49.784;30.150;2023-04-06T23:59:08;4.81;;;3.04;;
